Terminal Aerodrome Forecast
Issued by NWS

Home | Current Version | Previous Version | Text Only | Print | Product List | Glossary Off
Versions: 1 2 3 4 5 6 7 8 9 10 11 12 13 14 15 16 17 18 19 20 21 22

279
FTUS43 KABR 251740
TAFMBG
TAF
KMBG 251740Z 2518/2618 16014KT P6SM FEW060
     FM260000 13009KT P6SM SCT200
     FM260400 13008KT P6SM BKN110
     FM260900 12005KT P6SM OVC025
     FM261100 10004KT P6SM OVC010
     FM261200 09004KT P6SM OVC008
     FM261600 VRB03KT P6SM OVC015
     FM261700 02004KT P6SM OVC020=

USA.gov is the U.S. government's official web portal to all federal, state and local government web resources and services.